Festos Palace — SYNR — position and weather

sailwx.info

Track history (hours):
 
Tides and Currents Weather Stations Pressure Air Temp Water Temp Dewpoint Dewpoint Depression Visibility Wind Speed Wind Dir Waves Ship Positions

Festos Palace

Last reported at 2017-Sep-25 15:00 UTC. Time now 2017-Sep-25 15:25 UTC.
Position N 37°57' E 023°38'.

Length 214 m; draft 6.7 m.

Type: Ship. MMSI: 237611000.

Date/timePositionNaut miles runAvg speedWind from/ knotsBaromVisibWave heightAir tempDewpointWater temp
2017-Sep-25 15:00N 37°57' E 023°38'0 0.0
2017-Sep-25 14:30N 37°57' E 023°38'0 0.0
2017-Sep-25 14:00N 37°57' E 023°38'0 0.0
2017-Sep-25 13:30N 37°57' E 023°38'0 0.0
2017-Sep-25 13:00N 37°57' E 023°38'0 0.0
2017-Sep-25 12:30N 37°57' E 023°38'0 0.0
2017-Sep-25 12:00N 37°57' E 023°38'0 0.0
2017-Sep-25 11:30N 37°57' E 023°38'0 0.0
2017-Sep-25 11:00N 37°57' E 023°38'0 0.0
2017-Sep-25 10:30N 37°57' E 023°38'0 0.0
2017-Sep-25 10:00N 37°57' E 023°38'0 0.0
2017-Sep-25 09:30N 37°57' E 023°38'0 0.0
2017-Sep-25 09:00N 37°57' E 023°38'0 0.0
2017-Sep-25 08:30N 37°57' E 023°38'0 0.0
2017-Sep-25 08:00N 37°57' E 023°38'0 0.0
2017-Sep-25 07:30N 37°57' E 023°38'0 0.0
2017-Sep-25 07:00N 37°57' E 023°38'0 0.0
2017-Sep-25 06:30N 37°57' E 023°38'0 0.0
2017-Sep-25 06:00N 37°57' E 023°38'0 0.0
2017-Sep-25 05:30N 37°57' E 023°38'0 0.0
2017-Sep-25 05:00N 37°57' E 023°38'0 0.0
2017-Sep-25 04:30N 37°57' E 023°38'0 0.0
2017-Sep-25 04:00N 37°57' E 023°38'0 0.3
2017-Sep-25 03:31N 37°57' E 023°38'4 8.0
2017-Sep-25 03:00N 37°53' E 023°38'1019.3
2017-Sep-25 02:31N 37°44' E 023°44'13 0.4
2017-Sep-23 19:32N 37°32' E 023°47'1 0.0
2017-Sep-21 19:39N 37°32' E 023°46'320.9
2017-Sep-21 19:30N 37°35' E 023°45'1121.2
2017-Sep-21 19:00N 37°45' E 023°40'1020.4
2017-Sep-21 18:30N 37°55' E 023°37'2 4.3
2017-Sep-21 18:00N 37°57' E 023°38'0 0.0
2017-Sep-21 17:30N 37°57' E 023°38'0 0.0
2017-Sep-21 17:00N 37°57' E 023°38'0 0.0
2017-Sep-21 16:30N 37°57' E 023°38'0 0.0
2017-Sep-21 16:00N 37°57' E 023°38'0 0.0
2017-Sep-21 15:30N 37°57' E 023°38'0 0.0
2017-Sep-21 15:00N 37°57' E 023°38'0 0.0
2017-Sep-21 14:30N 37°57' E 023°38'0 0.0
2017-Sep-21 14:00N 37°57' E 023°38'0 0.0
2017-Sep-21 13:30N 37°57' E 023°38'0 0.0
2017-Sep-21 13:00N 37°57' E 023°38'0 0.0
2017-Sep-21 12:30N 37°57' E 023°38'0 0.0
2017-Sep-21 12:00N 37°57' E 023°38'0 0.0
2017-Sep-21 11:30N 37°57' E 023°38'0 0.0
2017-Sep-21 11:00N 37°57' E 023°38'0 0.0
2017-Sep-21 10:30N 37°57' E 023°38'0 0.0
2017-Sep-21 10:00N 37°57' E 023°38'0 0.0
2017-Sep-21 09:30N 37°57' E 023°38'0 0.0
2017-Sep-21 09:00N 37°57' E 023°38'0 0.0
2017-Sep-21 08:30N 37°57' E 023°38'0 0.0
2017-Sep-21 08:00N 37°57' E 023°38'0 0.0
2017-Sep-21 07:30N 37°57' E 023°38'0 0.0
2017-Sep-21 07:00N 37°57' E 023°38'0 0.0
2017-Sep-21 06:30N 37°57' E 023°38'0 0.0
2017-Sep-21 06:00N 37°57' E 023°38'0 0.0
2017-Sep-21 05:30N 37°57' E 023°38'0 0.0
2017-Sep-21 05:00N 37°57' E 023°38'0 0.0
2017-Sep-21 04:30N 37°57' E 023°38'0 0.0
2017-Sep-21 04:00N 37°57' E 023°38'0 0.1
2017-Sep-21 03:30N 37°57' E 023°38'4 8.5
2017-Sep-21 03:00N 37°52' E 023°39'1020.2
2017-Sep-21 02:30N 37°43' E 023°44'90 3.4
2017-Sep-19 23:52N 36°20' E 024°27'719.4
2017-Sep-19 23:31N 36°26' E 024°23'1019.2
2017-Sep-19 23:01N 36°34' E 024°18'1519.5
2017-Sep-19 22:16N 36°48' E 024°10'519.8
2017-Sep-19 22:01N 36°52' E 024°07'1019.7
2017-Sep-19 21:31N 37°01' E 024°02'1019.1
2017-Sep-19 21:00N 37°10' E 023°58'918.9
2017-Sep-19 20:31N 37°19' E 023°54'1019.0
2017-Sep-19 20:00N 37°28' E 023°49'919.0
2017-Sep-19 19:31N 37°36' E 023°44'1019.1
2017-Sep-19 19:00N 37°45' E 023°39'918.5
2017-Sep-19 18:31N 37°54' E 023°36'3 5.9
2017-Sep-19 18:01N 37°57' E 023°38'0 0.0
2017-Sep-19 17:30N 37°57' E 023°38'0 0.0
2017-Sep-19 17:00N 37°57' E 023°38'0 0.0
2017-Sep-19 16:31N 37°57' E 023°38'0 0.0
2017-Sep-19 16:01N 37°57' E 023°38'0 0.0
2017-Sep-19 15:30N 37°57' E 023°38'0 0.0
2017-Sep-19 15:00N 37°57' E 023°38'0 0.0
2017-Sep-19 14:31N 37°57' E 023°38'0 0.0
2017-Sep-19 14:01N 37°57' E 023°38'0 0.0
2017-Sep-19 13:30N 37°57' E 023°38'0 0.0
2017-Sep-19 13:00N 37°57' E 023°38'0 0.0
2017-Sep-19 12:31N 37°57' E 023°38'0 0.0
2017-Sep-19 12:00N 37°57' E 023°38'0 0.0
2017-Sep-19 11:31N 37°57' E 023°38'0 0.0
2017-Sep-19 11:01N 37°57' E 023°38'0 0.0
2017-Sep-19 10:31N 37°57' E 023°38'0 0.0
2017-Sep-19 10:00N 37°57' E 023°38'0 0.0
2017-Sep-19 09:30N 37°57' E 023°38'0 0.0
2017-Sep-19 09:00N 37°57' E 023°38'0 0.0
2017-Sep-19 08:31N 37°57' E 023°38'0 0.0
2017-Sep-19 08:00N 37°57' E 023°38'0 0.0
2017-Sep-19 07:30N 37°57' E 023°38'0 0.0
2017-Sep-19 07:00N 37°57' E 023°38'0 0.0
2017-Sep-19 06:30N 37°57' E 023°38'0 0.0
2017-Sep-19 06:00N 37°57' E 023°38'0 0.0
2017-Sep-19 05:30N 37°57' E 023°38'0 0.0
2017-Sep-19 05:00N 37°57' E 023°38'0 0.0
2017-Sep-19 04:31N 37°57' E 023°38'0 0.0
2017-Sep-19 04:00N 37°57' E 023°38'0 0.7
2017-Sep-19 03:31N 37°56' E 023°38'611.4
2017-Sep-19 03:00N 37°51' E 023°40'1019.0
2017-Sep-19 02:30N 37°42' E 023°45'1019.1
2017-Sep-19 02:00N 37°33' E 023°49'1019.4
2017-Sep-19 01:30N 37°24' E 023°54'1019.4
2017-Sep-19 01:00N 37°15' E 023°58'1019.4
2017-Sep-19 00:28N 37°05' E 024°02'919.4
2017-Sep-19 00:01N 36°57' E 024°05'1019.6
2017-Sep-18 23:30N 36°48' E 024°10'1220.1
2017-Sep-18 22:54N 36°37' E 024°16'1020.6
2017-Sep-18 22:24N 36°27' E 024°22'48 1.9
2017-Sep-17 20:53N 37°11' E 023°58'919.3
2017-Sep-17 20:27N 37°19' E 023°54'819.3
2017-Sep-17 20:01N 37°27' E 023°50'1019.1
2017-Sep-17 19:31N 37°36' E 023°45'1019.2
2017-Sep-17 19:01N 37°44' E 023°40'918.9
2017-Sep-17 18:31N 37°54' E 023°37'3 5.9
2017-Sep-17 18:00N 37°57' E 023°38'0 0.0
2017-Sep-17 17:30N 37°57' E 023°38'0 0.0
2017-Sep-17 16:58N 37°57' E 023°38'0 0.0
2017-Sep-17 16:27N 37°57' E 023°38'0 0.0
2017-Sep-17 16:00N 37°57' E 023°38'0 0.0
2017-Sep-17 15:30N 37°57' E 023°38'0 0.0
2017-Sep-17 15:00N 37°57' E 023°38'0 0.0
2017-Sep-17 14:30N 37°57' E 023°38'0 0.0
2017-Sep-17 13:59N 37°57' E 023°38'0 0.0
2017-Sep-17 13:29N 37°57' E 023°38'0 0.0
2017-Sep-17 12:59N 37°57' E 023°38'0 0.0
2017-Sep-17 12:29N 37°57' E 023°38'0 0.0
2017-Sep-17 11:55N 37°57' E 023°38'0 0.0
2017-Sep-17 11:28N 37°57' E 023°38'0 0.0
2017-Sep-17 10:58N 37°57' E 023°38'0 0.0
2017-Sep-17 10:28N 37°57' E 023°38'0 0.0
2017-Sep-17 09:58N 37°57' E 023°38'0 0.0
2017-Sep-17 09:21N 37°57' E 023°38'0 0.0
2017-Sep-17 09:00N 37°57' E 023°38'0 0.0
2017-Sep-17 08:30N 37°57' E 023°38'0 0.0
2017-Sep-17 08:00N 37°57' E 023°38'0 0.0
2017-Sep-17 07:30N 37°57' E 023°38'0 0.0
2017-Sep-17 06:59N 37°57' E 023°38'0 0.0
2017-Sep-17 06:29N 37°57' E 023°38'0 0.0
2017-Sep-17 05:59N 37°57' E 023°38'0 0.0
2017-Sep-17 05:29N 37°57' E 023°38'0 0.0
2017-Sep-17 04:58N 37°57' E 023°38'0 0.0
2017-Sep-17 04:28N 37°57' E 023°38'0 0.0
2017-Sep-17 04:00N 37°57' E 023°38'0 0.2
2017-Sep-17 03:30N 37°57' E 023°38'611.2
2017-Sep-17 03:00N 37°51' E 023°39'1019.4
2017-Sep-17 02:30N 37°42' E 023°45'1319.3
2017-Sep-17 01:51N 37°31' E 023°50'818.6
2017-Sep-17 01:27N 37°23' E 023°54'818.7
2017-Sep-17 01:00N 37°16' E 023°57'1019.0
2017-Sep-17 00:30N 37°07' E 024°01'6519.8
2017-Sep-16 21:15N 36°08' E 024°36'522.0
2017-Sep-16 21:00N 36°04' E 024°39'57 2.5
2017-Sep-15 22:03N 36°54' E 024°06'120.5
2017-Sep-15 21:59N 36°56' E 024°06'1020.2
2017-Sep-15 21:30N 37°04' E 024°01'1020.0
2017-Sep-15 21:01N 37°14' E 023°56'918.3
2017-Sep-15 20:31N 37°22' E 023°52'918.2
2017-Sep-15 20:00N 37°30' E 023°47'918.4
2017-Sep-15 19:30N 37°39' E 023°42'918.1
2017-Sep-15 19:00N 37°47' E 023°37'817.1
2017-Sep-15 18:31N 37°55' E 023°37'2 3.4
2017-Sep-15 18:00N 37°57' E 023°38'0 0.0
2017-Sep-15 17:30N 37°57' E 023°38'0 0.0
2017-Sep-15 17:00N 37°57' E 023°38'0 0.0
2017-Sep-15 16:30N 37°57' E 023°38'0 0.0
2017-Sep-15 16:00N 37°57' E 023°38'0 0.0
2017-Sep-15 15:30N 37°57' E 023°38'0 0.0
2017-Sep-15 15:00N 37°57' E 023°38'  
Track history (hours):
 
Tides and Currents Weather Stations Pressure Air Temp Water Temp Dewpoint Dewpoint Depression Visibility Wind Speed Wind Dir Waves Ship Positions

Festos Palace

Last reported at 2017-Sep-25 15:00 UTC. Time now 2017-Sep-25 15:25 UTC.
Position N 37°57' E 023°38'.

Length 214 m; draft 6.7 m.

Type: Ship. MMSI: 237611000.

Date/timePositionNaut miles runAvg speedWind from/ knotsBaromVisibWave heightAir tempDewpointWater temp
2017-Sep-25 15:00N 37°57' E 023°38'0 0.0
2017-Sep-25 14:30N 37°57' E 023°38'0 0.0
2017-Sep-25 14:00N 37°57' E 023°38'0 0.0
2017-Sep-25 13:30N 37°57' E 023°38'0 0.0
2017-Sep-25 13:00N 37°57' E 023°38'0 0.0
2017-Sep-25 12:30N 37°57' E 023°38'0 0.0
2017-Sep-25 12:00N 37°57' E 023°38'0 0.0
2017-Sep-25 11:30N 37°57' E 023°38'0 0.0
2017-Sep-25 11:00N 37°57' E 023°38'0 0.0
2017-Sep-25 10:30N 37°57' E 023°38'0 0.0
2017-Sep-25 10:00N 37°57' E 023°38'0 0.0
2017-Sep-25 09:30N 37°57' E 023°38'0 0.0
2017-Sep-25 09:00N 37°57' E 023°38'0 0.0
2017-Sep-25 08:30N 37°57' E 023°38'0 0.0
2017-Sep-25 08:00N 37°57' E 023°38'0 0.0
2017-Sep-25 07:30N 37°57' E 023°38'0 0.0
2017-Sep-25 07:00N 37°57' E 023°38'0 0.0
2017-Sep-25 06:30N 37°57' E 023°38'0 0.0
2017-Sep-25 06:00N 37°57' E 023°38'0 0.0
2017-Sep-25 05:30N 37°57' E 023°38'0 0.0
2017-Sep-25 05:00N 37°57' E 023°38'0 0.0
2017-Sep-25 04:30N 37°57' E 023°38'0 0.0
2017-Sep-25 04:00N 37°57' E 023°38'0 0.3
2017-Sep-25 03:31N 37°57' E 023°38'4 8.0
2017-Sep-25 03:00N 37°53' E 023°38'1019.3
2017-Sep-25 02:31N 37°44' E 023°44'13 0.4
2017-Sep-23 19:32N 37°32' E 023°47'1 0.0
2017-Sep-21 19:39N 37°32' E 023°46'320.9
2017-Sep-21 19:30N 37°35' E 023°45'1121.2
2017-Sep-21 19:00N 37°45' E 023°40'1020.4
2017-Sep-21 18:30N 37°55' E 023°37'2 4.3
2017-Sep-21 18:00N 37°57' E 023°38'0 0.0
2017-Sep-21 17:30N 37°57' E 023°38'0 0.0
2017-Sep-21 17:00N 37°57' E 023°38'0 0.0
2017-Sep-21 16:30N 37°57' E 023°38'0 0.0
2017-Sep-21 16:00N 37°57' E 023°38'0 0.0
2017-Sep-21 15:30N 37°57' E 023°38'0 0.0
2017-Sep-21 15:00N 37°57' E 023°38'0 0.0
2017-Sep-21 14:30N 37°57' E 023°38'0 0.0
2017-Sep-21 14:00N 37°57' E 023°38'0 0.0
2017-Sep-21 13:30N 37°57' E 023°38'0 0.0
2017-Sep-21 13:00N 37°57' E 023°38'0 0.0
2017-Sep-21 12:30N 37°57' E 023°38'0 0.0
2017-Sep-21 12:00N 37°57' E 023°38'0 0.0
2017-Sep-21 11:30N 37°57' E 023°38'0 0.0
2017-Sep-21 11:00N 37°57' E 023°38'0 0.0
2017-Sep-21 10:30N 37°57' E 023°38'0 0.0
2017-Sep-21 10:00N 37°57' E 023°38'0 0.0
2017-Sep-21 09:30N 37°57' E 023°38'0 0.0
2017-Sep-21 09:00N 37°57' E 023°38'0 0.0
2017-Sep-21 08:30N 37°57' E 023°38'0 0.0
2017-Sep-21 08:00N 37°57' E 023°38'0 0.0
2017-Sep-21 07:30N 37°57' E 023°38'0 0.0
2017-Sep-21 07:00N 37°57' E 023°38'0 0.0
2017-Sep-21 06:30N 37°57' E 023°38'0 0.0
2017-Sep-21 06:00N 37°57' E 023°38'0 0.0
2017-Sep-21 05:30N 37°57' E 023°38'0 0.0
2017-Sep-21 05:00N 37°57' E 023°38'0 0.0
2017-Sep-21 04:30N 37°57' E 023°38'0 0.0
2017-Sep-21 04:00N 37°57' E 023°38'0 0.1
2017-Sep-21 03:30N 37°57' E 023°38'4 8.5
2017-Sep-21 03:00N 37°52' E 023°39'1020.2
2017-Sep-21 02:30N 37°43' E 023°44'90 3.4
2017-Sep-19 23:52N 36°20' E 024°27'719.4
2017-Sep-19 23:31N 36°26' E 024°23'1019.2
2017-Sep-19 23:01N 36°34' E 024°18'1519.5
2017-Sep-19 22:16N 36°48' E 024°10'519.8
2017-Sep-19 22:01N 36°52' E 024°07'1019.7
2017-Sep-19 21:31N 37°01' E 024°02'1019.1
2017-Sep-19 21:00N 37°10' E 023°58'918.9
2017-Sep-19 20:31N 37°19' E 023°54'1019.0
2017-Sep-19 20:00N 37°28' E 023°49'919.0
2017-Sep-19 19:31N 37°36' E 023°44'1019.1
2017-Sep-19 19:00N 37°45' E 023°39'918.5
2017-Sep-19 18:31N 37°54' E 023°36'3 5.9
2017-Sep-19 18:01N 37°57' E 023°38'0 0.0
2017-Sep-19 17:30N 37°57' E 023°38'0 0.0
2017-Sep-19 17:00N 37°57' E 023°38'0 0.0
2017-Sep-19 16:31N 37°57' E 023°38'0 0.0
2017-Sep-19 16:01N 37°57' E 023°38'0 0.0
2017-Sep-19 15:30N 37°57' E 023°38'0 0.0
2017-Sep-19 15:00N 37°57' E 023°38'0 0.0
2017-Sep-19 14:31N 37°57' E 023°38'0 0.0
2017-Sep-19 14:01N 37°57' E 023°38'0 0.0
2017-Sep-19 13:30N 37°57' E 023°38'0 0.0
2017-Sep-19 13:00N 37°57' E 023°38'0 0.0
2017-Sep-19 12:31N 37°57' E 023°38'0 0.0
2017-Sep-19 12:00N 37°57' E 023°38'0 0.0
2017-Sep-19 11:31N 37°57' E 023°38'0 0.0
2017-Sep-19 11:01N 37°57' E 023°38'0 0.0
2017-Sep-19 10:31N 37°57' E 023°38'0 0.0
2017-Sep-19 10:00N 37°57' E 023°38'0 0.0
2017-Sep-19 09:30N 37°57' E 023°38'0 0.0
2017-Sep-19 09:00N 37°57' E 023°38'0 0.0
2017-Sep-19 08:31N 37°57' E 023°38'0 0.0
2017-Sep-19 08:00N 37°57' E 023°38'0 0.0
2017-Sep-19 07:30N 37°57' E 023°38'0 0.0
2017-Sep-19 07:00N 37°57' E 023°38'0 0.0
2017-Sep-19 06:30N 37°57' E 023°38'0 0.0
2017-Sep-19 06:00N 37°57' E 023°38'0 0.0
2017-Sep-19 05:30N 37°57' E 023°38'0 0.0
2017-Sep-19 05:00N 37°57' E 023°38'0 0.0
2017-Sep-19 04:31N 37°57' E 023°38'0 0.0
2017-Sep-19 04:00N 37°57' E 023°38'0 0.7
2017-Sep-19 03:31N 37°56' E 023°38'611.4
2017-Sep-19 03:00N 37°51' E 023°40'1019.0
2017-Sep-19 02:30N 37°42' E 023°45'1019.1
2017-Sep-19 02:00N 37°33' E 023°49'1019.4
2017-Sep-19 01:30N 37°24' E 023°54'1019.4
2017-Sep-19 01:00N 37°15' E 023°58'1019.4
2017-Sep-19 00:28N 37°05' E 024°02'919.4
2017-Sep-19 00:01N 36°57' E 024°05'1019.6
2017-Sep-18 23:30N 36°48' E 024°10'1220.1
2017-Sep-18 22:54N 36°37' E 024°16'1020.6
2017-Sep-18 22:24N 36°27' E 024°22'48 1.9
2017-Sep-17 20:53N 37°11' E 023°58'919.3
2017-Sep-17 20:27N 37°19' E 023°54'819.3
2017-Sep-17 20:01N 37°27' E 023°50'1019.1
2017-Sep-17 19:31N 37°36' E 023°45'1019.2
2017-Sep-17 19:01N 37°44' E 023°40'918.9
2017-Sep-17 18:31N 37°54' E 023°37'3 5.9
2017-Sep-17 18:00N 37°57' E 023°38'0 0.0
2017-Sep-17 17:30N 37°57' E 023°38'0 0.0
2017-Sep-17 16:58N 37°57' E 023°38'0 0.0
2017-Sep-17 16:27N 37°57' E 023°38'0 0.0
2017-Sep-17 16:00N 37°57' E 023°38'0 0.0
2017-Sep-17 15:30N 37°57' E 023°38'0 0.0
2017-Sep-17 15:00N 37°57' E 023°38'0 0.0
2017-Sep-17 14:30N 37°57' E 023°38'0 0.0
2017-Sep-17 13:59N 37°57' E 023°38'0 0.0
2017-Sep-17 13:29N 37°57' E 023°38'0 0.0
2017-Sep-17 12:59N 37°57' E 023°38'0 0.0
2017-Sep-17 12:29N 37°57' E 023°38'0 0.0
2017-Sep-17 11:55N 37°57' E 023°38'0 0.0
2017-Sep-17 11:28N 37°57' E 023°38'0 0.0
2017-Sep-17 10:58N 37°57' E 023°38'0 0.0
2017-Sep-17 10:28N 37°57' E 023°38'0 0.0
2017-Sep-17 09:58N 37°57' E 023°38'0 0.0
2017-Sep-17 09:21N 37°57' E 023°38'0 0.0
2017-Sep-17 09:00N 37°57' E 023°38'0 0.0
2017-Sep-17 08:30N 37°57' E 023°38'0 0.0
2017-Sep-17 08:00N 37°57' E 023°38'0 0.0
2017-Sep-17 07:30N 37°57' E 023°38'0 0.0
2017-Sep-17 06:59N 37°57' E 023°38'0 0.0
2017-Sep-17 06:29N 37°57' E 023°38'0 0.0
2017-Sep-17 05:59N 37°57' E 023°38'0 0.0
2017-Sep-17 05:29N 37°57' E 023°38'0 0.0
2017-Sep-17 04:58N 37°57' E 023°38'0 0.0
2017-Sep-17 04:28N 37°57' E 023°38'0 0.0
2017-Sep-17 04:00N 37°57' E 023°38'0 0.2
2017-Sep-17 03:30N 37°57' E 023°38'611.2
2017-Sep-17 03:00N 37°51' E 023°39'1019.4
2017-Sep-17 02:30N 37°42' E 023°45'1319.3
2017-Sep-17 01:51N 37°31' E 023°50'818.6
2017-Sep-17 01:27N 37°23' E 023°54'818.7
2017-Sep-17 01:00N 37°16' E 023°57'1019.0
2017-Sep-17 00:30N 37°07' E 024°01'6519.8
2017-Sep-16 21:15N 36°08' E 024°36'522.0
2017-Sep-16 21:00N 36°04' E 024°39'57 2.5
2017-Sep-15 22:03N 36°54' E 024°06'120.5
2017-Sep-15 21:59N 36°56' E 024°06'1020.2
2017-Sep-15 21:30N 37°04' E 024°01'1020.0
2017-Sep-15 21:01N 37°14' E 023°56'918.3
2017-Sep-15 20:31N 37°22' E 023°52'918.2
2017-Sep-15 20:00N 37°30' E 023°47'918.4
2017-Sep-15 19:30N 37°39' E 023°42'918.1
2017-Sep-15 19:00N 37°47' E 023°37'817.1
2017-Sep-15 18:31N 37°55' E 023°37'2 3.4
2017-Sep-15 18:00N 37°57' E 023°38'0 0.0
2017-Sep-15 17:30N 37°57' E 023°38'0 0.0
2017-Sep-15 17:00N 37°57' E 023°38'0 0.0
2017-Sep-15 16:30N 37°57' E 023°38'0 0.0
2017-Sep-15 16:00N 37°57' E 023°38'0 0.0
2017-Sep-15 15:30N 37°57' E 023°38'0 0.0
2017-Sep-15 15:00N 37°57' E 023°38'  

Dump ship's entire track history